createdAt,value
2022-11-24T00:03:36.417Z,99.77
2022-11-24T00:07:37.820Z,100.00
2022-11-24T00:11:39.318Z,100.00
2022-11-24T00:15:40.623Z,100.00
2022-11-24T00:19:41.989Z,100.00
2022-11-24T00:23:43.899Z,100.00
2022-11-24T00:27:45.688Z,100.00
2022-11-24T00:31:46.967Z,100.00
2022-11-24T00:35:54.222Z,100.00
2022-11-24T00:39:55.630Z,100.00
2022-11-24T00:43:57.056Z,100.00
2022-11-24T00:47:58.374Z,100.00
2022-11-24T00:51:59.679Z,100.00
2022-11-24T00:56:01.044Z,100.00
2022-11-24T01:00:03.587Z,100.00
2022-11-24T01:04:05.302Z,100.00
2022-11-24T01:08:06.807Z,99.74
2022-11-24T01:12:08.834Z,99.65
2022-11-24T01:16:31.319Z,99.31
2022-11-24T01:20:51.481Z,99.15
2022-11-24T01:25:01.242Z,98.88
2022-11-24T01:29:10.493Z,98.95
2022-11-24T01:33:11.773Z,98.65
2022-11-24T01:37:13.308Z,98.62
2022-11-24T01:41:25.415Z,98.60
2022-11-24T01:45:32.522Z,98.69
2022-11-24T01:49:33.804Z,98.61
2022-11-24T01:53:35.646Z,98.64
2022-11-24T01:57:43.731Z,99.29
2022-11-24T02:01:45.888Z,99.27
2022-11-24T02:05:56.136Z,99.63
2022-11-24T02:10:06.627Z,99.70
2022-11-24T02:14:10.052Z,100.00
2022-11-24T02:18:11.338Z,99.95
2022-11-24T02:22:23.374Z,99.77
2022-11-24T02:26:37.572Z,99.85
2022-11-24T02:30:39.215Z,99.83
2022-11-24T02:34:40.644Z,100.00
2022-11-24T02:38:41.916Z,100.00
2022-11-24T02:42:45.271Z,100.00
2022-11-24T02:46:46.937Z,100.00
2022-11-24T02:50:48.578Z,100.00
2022-11-24T02:54:49.971Z,100.00
2022-11-24T02:58:51.292Z,100.00
2022-11-24T03:02:52.702Z,100.00
2022-11-24T03:06:54.195Z,100.00
2022-11-24T03:10:55.768Z,100.00
2022-11-24T03:14:57.211Z,100.00
2022-11-24T03:18:58.620Z,100.00
2022-11-24T03:23:00.267Z,100.00
2022-11-24T03:27:01.599Z,100.00
2022-11-24T03:31:03.001Z,100.00
2022-11-24T03:35:04.835Z,100.00
2022-11-24T03:39:07.016Z,100.00
2022-11-24T03:43:08.318Z,100.00
2022-11-24T03:47:10.769Z,100.00
2022-11-24T03:51:12.195Z,100.00
2022-11-24T03:55:13.615Z,100.00
2022-11-24T03:59:14.900Z,100.00
2022-11-24T04:03:16.448Z,100.00
2022-11-24T04:07:18.227Z,100.00
2022-11-24T04:11:38.324Z,100.00
2022-11-24T04:15:40.812Z,100.00
2022-11-24T04:19:42.134Z,100.00
2022-11-24T04:23:43.806Z,100.00
2022-11-24T04:27:45.606Z,100.00
2022-11-24T04:31:47.015Z,100.00
2022-11-24T04:35:48.304Z,100.00
2022-11-24T04:39:49.786Z,100.00
2022-11-24T04:43:51.254Z,100.00
2022-11-24T04:47:52.533Z,100.00
2022-11-24T04:51:53.767Z,100.00
2022-11-24T04:55:55.448Z,100.00
2022-11-24T04:59:56.930Z,100.00
2022-11-24T05:03:58.640Z,100.00
2022-11-24T05:08:00.371Z,100.00
2022-11-24T05:12:01.852Z,100.00
2022-11-24T05:16:03.425Z,100.00
2022-11-24T05:20:05.958Z,100.00
2022-11-24T05:24:07.427Z,100.00
2022-11-24T05:28:12.371Z,100.00
2022-11-24T05:32:13.671Z,100.00
2022-11-24T05:36:33.580Z,100.00
2022-11-24T05:40:34.938Z,100.00
2022-11-24T05:44:36.434Z,100.00
2022-11-24T05:48:37.967Z,100.00
2022-11-24T05:52:39.338Z,100.00
2022-11-24T05:56:40.708Z,100.00
2022-11-24T06:00:42.062Z,100.00
2022-11-24T06:04:43.308Z,100.00
2022-11-24T06:08:44.626Z,100.00
2022-11-24T06:12:46.249Z,100.00
2022-11-24T06:16:47.849Z,100.00
2022-11-24T06:21:09.801Z,100.00
2022-11-24T06:25:11.595Z,100.00
2022-11-24T06:29:13.136Z,100.00
2022-11-24T06:33:14.467Z,100.00
2022-11-24T06:37:15.996Z,100.00
2022-11-24T06:41:18.059Z,100.00
2022-11-24T06:45:19.431Z,100.00
2022-11-24T06:49:20.825Z,100.00
2022-11-24T06:53:22.232Z,100.00
2022-11-24T06:57:23.609Z,100.00
2022-11-24T07:01:26.202Z,100.00
2022-11-24T07:05:29.845Z,100.00
2022-11-24T07:09:34.113Z,100.00
2022-11-24T07:13:35.720Z,100.00
2022-11-24T07:17:40.464Z,100.00
2022-11-24T07:21:41.963Z,100.00
2022-11-24T07:25:43.244Z,100.00
2022-11-24T07:29:45.316Z,100.00
2022-11-24T07:33:50.746Z,100.00
2022-11-24T07:37:54.758Z,99.93
2022-11-24T07:41:56.084Z,99.65
2022-11-24T07:45:57.631Z,99.36
2022-11-24T07:49:58.980Z,99.90
2022-11-24T07:54:00.283Z,100.00
2022-11-24T07:58:01.730Z,100.00
2022-11-24T08:02:03.536Z,100.00
2022-11-24T08:06:23.965Z,100.00
2022-11-24T08:10:26.387Z,100.00
2022-11-24T08:14:27.888Z,100.00
2022-11-24T08:18:29.600Z,100.00
2022-11-24T08:22:30.879Z,100.00
2022-11-24T08:26:32.182Z,100.00
2022-11-24T08:30:33.475Z,100.00
2022-11-24T08:34:35.902Z,99.95
2022-11-24T08:38:37.352Z,98.45
2022-11-24T08:42:40.276Z,98.05
2022-11-24T08:46:41.651Z,98.45
2022-11-24T08:50:46.447Z,98.37
2022-11-24T08:54:47.781Z,98.00
2022-11-24T08:58:52.817Z,97.00
2022-11-24T09:02:57.297Z,96.86
2022-11-24T09:06:59.208Z,96.05
2022-11-24T09:11:05.343Z,95.77
2022-11-24T09:15:08.410Z,94.56
2022-11-24T09:19:10.040Z,94.57
2022-11-24T09:23:11.527Z,94.82
2022-11-24T09:27:12.803Z,93.30
2022-11-24T09:31:16.967Z,91.16
2022-11-24T09:35:18.417Z,89.99
2022-11-24T09:39:20.459Z,90.62
2022-11-24T09:43:51.254Z,91.39
2022-11-24T09:47:55.426Z,91.38
2022-11-24T09:51:57.075Z,91.55
2022-11-24T09:56:00.627Z,91.18
2022-11-24T10:00:07.558Z,90.11
2022-11-24T10:04:16.001Z,90.01
2022-11-24T10:08:36.107Z,90.26
2022-11-24T10:12:37.811Z,90.84
2022-11-24T10:16:45.280Z,90.43
2022-11-24T10:20:56.199Z,89.92
2022-11-24T10:25:18.675Z,88.91
2022-11-24T10:29:38.832Z,87.75
2022-11-24T10:33:40.354Z,86.60
2022-11-24T10:37:46.161Z,86.73
2022-11-24T10:41:47.379Z,87.48
2022-11-24T10:45:50.439Z,86.86
2022-11-24T10:49:54.928Z,86.34
2022-11-24T10:54:00.459Z,86.81
2022-11-24T10:58:18.289Z,86.21
2022-11-24T11:02:30.884Z,85.91
2022-11-24T11:06:32.376Z,86.13
2022-11-24T11:10:33.715Z,86.22
2022-11-24T11:14:35.774Z,85.61
2022-11-24T11:18:37.140Z,85.04
2022-11-24T11:22:38.625Z,85.24
2022-11-24T11:26:41.527Z,85.15
2022-11-24T11:35:15.996Z,84.68
2022-11-24T11:39:23.332Z,84.36
2022-11-24T11:43:45.763Z,85.30
2022-11-24T11:47:47.168Z,83.54
2022-11-24T11:51:57.635Z,83.58
2022-11-24T11:56:12.013Z,84.21
2022-11-24T12:00:18.808Z,83.82
2022-11-24T12:04:42.474Z,82.62
2022-11-24T12:09:19.397Z,82.39
2022-11-24T12:13:26.752Z,80.72
2022-11-24T12:17:46.693Z,81.73
2022-11-24T12:22:06.906Z,81.05
2022-11-24T12:26:09.060Z,79.60
2022-11-24T12:30:17.034Z,78.83
2022-11-24T12:34:41.906Z,79.56
2022-11-24T12:39:02.569Z,79.56
2022-11-24T12:43:24.207Z,79.76
2022-11-24T12:47:28.443Z,79.62
2022-11-24T12:51:33.239Z,78.88
2022-11-24T12:55:34.836Z,78.99
2022-11-24T12:59:44.214Z,78.75
2022-11-24T13:04:04.132Z,78.41
2022-11-24T13:08:06.423Z,78.50
2022-11-24T13:12:11.212Z,78.62
2022-11-24T13:20:38.997Z,79.42
2022-11-24T13:24:40.999Z,78.57
2022-11-24T13:29:08.889Z,77.79
2022-11-24T13:33:16.546Z,77.73
2022-11-24T13:37:31.543Z,76.94
2022-11-24T13:41:37.095Z,76.41
2022-11-24T13:45:49.610Z,76.95
2022-11-24T13:49:51.383Z,76.48
2022-11-24T13:53:53.904Z,76.20
2022-11-24T13:58:00.635Z,75.82
2022-11-24T14:02:08.478Z,74.80
2022-11-24T14:06:28.874Z,75.09
2022-11-24T14:10:32.507Z,75.08
2022-11-24T14:14:34.232Z,74.87
2022-11-24T14:18:43.131Z,75.18
2022-11-24T14:22:44.450Z,76.23
2022-11-24T14:26:46.098Z,75.61
2022-11-24T14:30:47.483Z,76.07
2022-11-24T14:34:49.099Z,76.52
2022-11-24T14:38:50.568Z,77.16
2022-11-24T14:42:51.859Z,77.16
2022-11-24T14:47:06.446Z,77.36
2022-11-24T14:51:07.753Z,78.04
2022-11-24T14:55:23.430Z,78.41
2022-11-24T14:59:26.087Z,79.44
2022-11-24T15:03:27.571Z,80.12
2022-11-24T15:07:29.576Z,80.15
2022-11-24T15:11:32.697Z,81.40
2022-11-24T15:15:35.924Z,82.86
2022-11-24T15:19:38.560Z,83.43
2022-11-24T15:23:41.771Z,84.10
2022-11-24T15:27:43.240Z,85.12
2022-11-24T15:31:49.353Z,84.74
2022-11-24T15:35:53.877Z,85.17
2022-11-24T15:39:55.231Z,85.25
2022-11-24T15:43:59.789Z,85.39
2022-11-24T15:48:01.087Z,86.01
2022-11-24T15:52:03.084Z,86.03
2022-11-24T15:56:07.174Z,86.92
2022-11-24T16:00:10.188Z,87.56
2022-11-24T16:04:13.054Z,88.69
2022-11-24T16:08:15.198Z,89.12
2022-11-24T16:12:17.189Z,89.56
2022-11-24T16:16:18.759Z,89.83
2022-11-24T16:20:20.139Z,89.89
2022-11-24T16:24:21.508Z,91.03
2022-11-24T16:28:23.092Z,91.39
2022-11-24T16:32:24.783Z,91.65
2022-11-24T16:36:26.632Z,92.22
2022-11-24T16:40:28.564Z,92.71
2022-11-24T16:44:29.887Z,93.47
2022-11-24T16:48:35.455Z,93.81
2022-11-24T16:52:37.024Z,94.16
2022-11-24T16:56:38.329Z,94.48
2022-11-24T17:00:39.595Z,94.50
2022-11-24T17:04:40.951Z,94.74
2022-11-24T17:08:43.070Z,94.95
2022-11-24T17:12:44.921Z,95.09
2022-11-24T17:16:46.389Z,95.54
2022-11-24T17:20:47.722Z,95.36
2022-11-24T17:24:48.996Z,95.25
2022-11-24T17:28:51.259Z,95.17
2022-11-24T17:32:56.787Z,95.54
2022-11-24T17:36:58.447Z,95.39
2022-11-24T17:40:59.901Z,96.49
2022-11-24T17:45:04.169Z,96.10
2022-11-24T17:49:06.665Z,95.59
2022-11-24T17:53:08.313Z,95.48
2022-11-24T17:57:09.581Z,96.33
2022-11-24T18:01:12.143Z,96.47
2022-11-24T18:05:13.666Z,96.69
2022-11-24T18:09:15.066Z,96.68
2022-11-24T18:13:34.196Z,97.12
2022-11-24T18:17:39.642Z,96.99
2022-11-24T18:21:41.669Z,97.00
2022-11-24T18:25:43.035Z,97.26
2022-11-24T18:29:44.284Z,98.28
2022-11-24T18:33:45.603Z,98.14
2022-11-24T18:37:46.950Z,98.17
2022-11-24T18:41:48.637Z,98.92
2022-11-24T18:45:50.192Z,99.32
2022-11-24T18:49:51.521Z,99.52
2022-11-24T18:53:54.446Z,100.00
2022-11-24T18:57:56.066Z,99.93
2022-11-24T19:01:57.955Z,99.75
2022-11-24T19:06:04.472Z,99.55
2022-11-24T19:10:06.065Z,99.64
2022-11-24T19:14:08.805Z,99.85
2022-11-24T19:18:10.079Z,99.42
2022-11-24T19:22:13.181Z,99.66
2022-11-24T19:26:14.412Z,100.00
2022-11-24T19:30:16.533Z,100.00
2022-11-24T19:34:17.857Z,100.00
2022-11-24T19:38:19.337Z,100.00
2022-11-24T19:42:20.707Z,100.00
2022-11-24T19:46:23.233Z,100.00
2022-11-24T19:50:24.494Z,100.00
2022-11-24T19:54:25.874Z,100.00
2022-11-24T19:58:27.139Z,100.00
2022-11-24T20:02:29.944Z,100.00
2022-11-24T20:06:32.738Z,100.00
2022-11-24T20:10:34.124Z,100.00
2022-11-24T20:14:35.594Z,100.00
2022-11-24T20:18:41.913Z,99.84
2022-11-24T20:22:43.900Z,99.88
2022-11-24T20:26:47.022Z,100.00
2022-11-24T20:30:48.277Z,99.95
2022-11-24T20:34:49.600Z,100.00
2022-11-24T20:38:52.023Z,100.00
2022-11-24T20:42:53.725Z,100.00
2022-11-24T20:46:56.062Z,100.00
2022-11-24T20:51:02.269Z,100.00
2022-11-24T20:55:03.939Z,99.69
2022-11-24T20:59:05.562Z,99.52
2022-11-24T21:03:07.015Z,98.98
2022-11-24T21:07:08.422Z,99.43
2022-11-24T21:11:11.309Z,99.14
2022-11-24T21:15:12.623Z,99.18
2022-11-24T21:19:14.761Z,98.91
2022-11-24T21:23:16.524Z,99.29
2022-11-24T21:27:17.755Z,99.62
2022-11-24T21:31:19.703Z,99.32
2022-11-24T21:35:21.270Z,100.00
2022-11-24T21:39:23.752Z,100.00
2022-11-24T21:43:25.142Z,100.00
2022-11-24T21:47:26.879Z,100.00
2022-11-24T21:51:28.467Z,100.00
2022-11-24T21:55:29.814Z,100.00
2022-11-24T21:59:31.229Z,100.00
2022-11-24T22:03:32.765Z,100.00
2022-11-24T22:07:34.104Z,100.00
2022-11-24T22:11:35.707Z,100.00
2022-11-24T22:15:36.994Z,100.00
2022-11-24T22:19:38.307Z,100.00
2022-11-24T22:23:40.236Z,100.00
2022-11-24T22:27:41.579Z,100.00
2022-11-24T22:31:44.171Z,100.00
2022-11-24T22:35:57.293Z,100.00
2022-11-24T22:39:58.527Z,100.00
2022-11-24T22:43:59.863Z,100.00
2022-11-24T22:48:01.151Z,100.00
2022-11-24T22:52:02.492Z,100.00
2022-11-24T22:56:05.057Z,100.00
2022-11-24T23:00:08.303Z,100.00
2022-11-24T23:04:09.721Z,100.00
2022-11-24T23:08:11.085Z,100.00
2022-11-24T23:12:12.446Z,100.00
2022-11-24T23:16:15.102Z,100.00
2022-11-24T23:20:16.939Z,100.00
2022-11-24T23:24:18.510Z,100.00
2022-11-24T23:28:19.896Z,100.00
2022-11-24T23:32:21.214Z,100.00
2022-11-24T23:36:22.529Z,100.00
2022-11-24T23:40:23.835Z,100.00
2022-11-24T23:44:25.103Z,100.00
2022-11-24T23:48:26.416Z,100.00
2022-11-24T23:52:29.760Z,100.00
2022-11-24T23:56:32.903Z,100.00
